aviador You're here:

KDMO Decoded Metar

SEDALIA in MO, USA
Report Time2017-12-16 17:53:00
UTC Time2017-12-16 18:52:07
Flight Rules vfr VFR
Wind210° at 18 Gusting to 24 kt
W.Decomp.*RWY 23: 16.6 kt HW 7 kt LCW
RWY 18: 16.0 kt HW 8.2 kt RCW
W.Rank210° ranks 3
Current wind is above 210° avg. (9.7)
Visibility9999 m
Phenomena:N/A
Clouds:N/A
Expected CloudBase > 6,000 ft AGL from Temp-Dew spread
CeilingNone
Temp13°C (ISA -0)
Dew Point-2°C (36% RH)
AAT4.3°C
QNH1014 hPa
Density Alt915 ft
Elevation899 ft
Report Wrong Elevation
Raw Report
KDMO 161753Z AUTO 21018G24KT 10SM CLR 13/M02 A2994 RMK AO2 SLP142
T01331017 10133 20044 $=

Extra information for KDMO:More info

Metar Taf Metar & Taf Last 4 Metars F.Rules Stats Wind Profile Meteogram Temp Stats Airport Information Weather charts Add Link Nearby VenuesMetar ALERT Operation Metar Decoded Social comments

AIRNAV info for KDMO